Time;durP1;ratioP1;P1;durP2;ratioP2;P2;SDS_P1;SDS_P2;PMS_P1;PMS_P2;Temp;Humidity;BMP_temperature;BMP_pressure;BME280_temperature;BME280_humidity;BME280_pressure;Samples;Min_cycle;Max_cycle;Signal;HPM_P1;HPM_P2
2022/04/06 00:00:26;;;;;;;21.35;18.13;;;8.10;99.90;;;;;;5004250;28;20022;-69
2022/04/06 00:02:52;;;;;;;28.10;20.67;;;8.00;99.90;;;;;;5007844;28;20021;-69
2022/04/06 00:05:22;;;;;;;29.70;20.08;;;7.90;99.90;;;;;;5013694;28;20021;-72
2022/04/06 00:07:49;;;;;;;29.15;22.55;;;7.90;99.90;;;;;;5008238;28;20030;-69
2022/04/06 00:10:15;;;;;;;22.48;20.02;;;7.90;99.90;;;;;;5009670;28;20022;-72
2022/04/06 00:12:42;;;;;;;28.05;18.75;;;7.90;99.90;;;;;;5011324;28;21224;-71
2022/04/06 00:15:10;;;;;;;31.73;20.95;;;7.90;99.90;;;;;;5008745;28;20045;-69
2022/04/06 00:17:37;;;;;;;29.77;21.13;;;7.80;99.90;;;;;;5010055;28;20030;-70
2022/04/06 00:20:05;;;;;;;28.95;20.25;;;7.90;99.90;;;;;;5009519;28;20377;-70
2022/04/06 00:22:31;;;;;;;23.95;20.10;;;7.90;99.90;;;;;;5010259;28;20020;-70
2022/04/06 00:24:58;;;;;;;27.05;19.35;;;7.80;99.90;;;;;;5010196;28;20096;-72
2022/04/06 00:27:24;;;;;;;26.25;20.50;;;7.80;99.90;;;;;;5000325;28;20033;-71
2022/04/06 00:29:51;;;;;;;27.45;20.05;;;7.80;99.90;;;;;;5010625;28;20108;-69
2022/04/06 00:32:17;;;;;;;27.42;19.65;;;7.80;99.90;;;;;;5007777;28;20476;-70
2022/04/06 00:37:28;;;;;;;21.48;17.90;;;7.80;99.90;;;;;;5007109;28;20092;-69
2022/04/06 00:39:54;;;;;;;28.52;19.27;;;7.80;99.90;;;;;;5008418;28;20033;-72
2022/04/06 00:42:20;;;;;;;25.02;18.25;;;7.80;99.90;;;;;;5005613;28;20053;-72
2022/04/06 00:44:46;;;;;;;25.85;19.15;;;7.80;99.90;;;;;;5004674;28;20030;-69
2022/04/06 00:47:12;;;;;;;19.80;17.30;;;7.70;99.90;;;;;;5009890;28;20111;-71
2022/04/06 00:49:38;;;;;;;19.67;16.90;;;7.70;99.90;;;;;;5005672;28;20032;-70
2022/04/06 00:52:06;;;;;;;20.90;18.75;;;7.70;99.90;;;;;;5007338;28;20054;-70
2022/04/06 00:54:37;;;;;;;24.63;16.15;;;7.70;99.90;;;;;;5006367;28;20552;-71
2022/04/06 00:57:03;;;;;;;27.58;18.25;;;7.80;99.90;;;;;;5009260;28;20509;-69
2022/04/06 00:59:30;;;;;;;25.20;17.38;;;7.70;99.90;;;;;;5009879;28;20026;-69
2022/04/06 01:01:57;;;;;;;22.08;19.05;;;7.70;99.90;;;;;;5008197;28;20379;-69
2022/04/06 01:04:23;;;;;;;24.42;17.20;;;7.60;99.90;;;;;;5010013;28;20522;-69
2022/04/06 01:06:49;;;;;;;22.67;19.17;;;7.60;99.90;;;;;;5009617;28;20117;-69
2022/04/06 01:09:20;;;;;;;20.10;17.50;;;7.60;99.90;;;;;;5005585;28;20034;-70
2022/04/06 01:11:50;;;;;;;25.05;16.92;;;7.60;99.90;;;;;;5010600;28;20022;-68
2022/04/06 01:14:18;;;;;;;22.70;15.98;;;7.70;99.90;;;;;;5010017;28;20026;-70
2022/04/06 01:17:00;;;;;;;29.85;18.50;;;7.70;99.90;;;;;;5007627;28;20052;-70
2022/04/06 01:19:40;;;;;;;21.95;16.10;;;7.60;99.90;;;;;;5006956;28;20153;-69
2022/04/06 01:22:12;;;;;;;21.40;17.70;;;7.60;99.90;;;;;;5018321;28;20034;-70
2022/04/06 01:24:39;;;;;;;20.25;16.02;;;7.50;99.90;;;;;;5009784;28;20033;-70
2022/04/06 01:27:06;;;;;;;26.48;16.77;;;7.50;99.90;;;;;;5006333;28;20033;-69
2022/04/06 01:29:32;;;;;;;21.55;17.75;;;7.40;99.90;;;;;;5007922;28;20034;-70
2022/04/06 01:32:16;;;;;;;21.88;16.92;;;7.40;99.90;;;;;;5008391;28;20034;-71
2022/04/06 01:34:43;;;;;;;18.80;16.50;;;7.40;99.90;;;;;;5008456;28;20442;-69
2022/04/06 01:37:11;;;;;;;23.35;16.95;;;7.40;99.90;;;;;;5009419;28;20026;-70
2022/04/06 01:39:38;;;;;;;25.58;18.73;;;7.30;99.90;;;;;;5009112;28;20030;-69
2022/04/06 01:42:06;;;;;;;27.67;16.15;;;7.30;99.90;;;;;;5008426;28;20101;-69
2022/04/06 01:44:32;;;;;;;22.83;17.35;;;7.40;99.90;;;;;;5009569;28;20022;-69
2022/04/06 01:46:59;;;;;;;26.00;17.13;;;7.40;99.90;;;;;;5003900;28;20065;-69
2022/04/06 01:52:12;;;;;;;21.35;17.63;;;7.50;99.90;;;;;;5007717;28;20096;-69
2022/04/06 01:54:51;;;;;;;24.48;17.85;;;7.50;99.90;;;;;;5007959;28;20354;-68
2022/04/06 01:57:18;;;;;;;30.02;16.67;;;7.40;99.90;;;;;;5001332;28;20057;-70
2022/04/06 01:59:44;;;;;;;28.23;16.55;;;7.50;99.90;;;;;;5006992;28;20018;-69
2022/04/06 02:02:13;;;;;;;20.77;16.13;;;7.50;99.90;;;;;;5009490;28;20037;-69
2022/04/06 02:04:39;;;;;;;25.90;17.40;;;7.50;99.90;;;;;;5008757;28;20057;-70
2022/04/06 02:07:06;;;;;;;21.73;17.88;;;7.40;99.90;;;;;;5009725;28;20026;-70
2022/04/06 02:09:31;;;;;;;20.42;17.52;;;7.40;99.90;;;;;;5009238;28;20572;-70
2022/04/06 02:11:59;;;;;;;23.63;16.85;;;7.30;99.90;;;;;;5006178;28;20093;-69
2022/04/06 02:14:25;;;;;;;28.15;20.05;;;7.30;99.90;;;;;;5004776;28;20095;-70
2022/04/06 02:16:51;;;;;;;31.92;20.65;;;7.30;99.90;;;;;;5005261;28;20026;-70
2022/04/06 02:19:17;;;;;;;36.40;18.10;;;7.40;99.90;;;;;;5008733;28;20516;-70
2022/04/06 02:21:43;;;;;;;26.58;18.90;;;7.40;99.90;;;;;;5002517;28;20037;-69
2022/04/06 02:24:09;;;;;;;30.60;19.20;;;7.30;99.90;;;;;;5008080;28;20025;-69
2022/04/06 02:26:34;;;;;;;24.70;17.42;;;7.30;99.90;;;;;;5008851;28;20044;-70
2022/04/06 02:29:00;;;;;;;24.90;17.60;;;7.20;99.90;;;;;;5004706;28;20081;-70
2022/04/06 02:31:27;;;;;;;29.27;18.27;;;7.20;99.90;;;;;;5008224;28;20068;-70
2022/04/06 02:33:52;;;;;;;22.75;19.13;;;7.10;99.90;;;;;;5008480;28;20036;-69
2022/04/06 02:36:18;;;;;;;28.85;18.27;;;7.10;99.90;;;;;;5006626;28;20022;-70
2022/04/06 02:38:47;;;;;;;28.13;18.95;;;7.10;99.90;;;;;;5010395;28;20025;-70
2022/04/06 02:41:13;;;;;;;21.15;16.55;;;7.10;99.90;;;;;;5005767;28;20088;-70
2022/04/06 02:43:39;;;;;;;21.60;17.58;;;7.10;99.90;;;;;;5007046;28;20501;-70
2022/04/06 02:46:05;;;;;;;22.20;16.77;;;7.20;99.90;;;;;;5009612;28;20029;-69
2022/04/06 02:48:31;;;;;;;25.60;19.02;;;7.20;99.90;;;;;;5006778;28;20022;-68
2022/04/06 02:50:57;;;;;;;22.92;16.98;;;7.20;99.90;;;;;;5005837;28;20030;-69
2022/04/06 02:53:23;;;;;;;24.42;18.15;;;7.20;99.90;;;;;;5004511;28;20021;-69
2022/04/06 02:55:49;;;;;;;21.95;18.15;;;7.20;99.90;;;;;;5011681;28;20473;-70
2022/04/06 02:58:15;;;;;;;26.65;17.17;;;7.10;99.90;;;;;;5009281;28;20018;-70
2022/04/06 03:00:41;;;;;;;22.13;17.02;;;7.20;99.90;;;;;;5008331;28;20026;-70
2022/04/06 03:03:07;;;;;;;24.90;18.45;;;7.20;99.90;;;;;;5009475;28;20037;-70
2022/04/06 03:05:33;;;;;;;29.20;17.90;;;7.20;99.90;;;;;;5011723;28;20080;-70
2022/04/06 03:07:59;;;;;;;30.13;17.75;;;7.10;99.90;;;;;;5013677;28;20030;-69
2022/04/06 03:10:25;;;;;;;26.80;17.90;;;7.10;99.90;;;;;;5011247;28;20065;-70
2022/04/06 03:12:51;;;;;;;25.30;17.88;;;7.10;99.90;;;;;;5013094;28;20041;-68
2022/04/06 03:15:17;;;;;;;20.25;16.35;;;7.20;99.90;;;;;;5011082;28;20030;-70
2022/04/06 03:17:43;;;;;;;21.67;17.77;;;7.20;99.90;;;;;;5011020;28;20402;-71
2022/04/06 03:20:14;;;;;;;24.90;17.10;;;7.10;99.90;;;;;;5009768;28;20049;-69
2022/04/06 03:22:41;;;;;;;21.27;16.67;;;7.00;99.90;;;;;;5012104;28;20033;-70
2022/04/06 03:25:07;;;;;;;25.02;17.88;;;6.90;99.90;;;;;;5011012;28;20034;-70
2022/04/06 03:27:34;;;;;;;27.92;19.00;;;7.00;99.90;;;;;;5009397;28;20034;-70
2022/04/06 03:30:02;;;;;;;22.90;16.88;;;6.90;99.90;;;;;;5008839;28;20053;-70
2022/04/06 03:32:28;;;;;;;25.55;17.05;;;6.90;99.90;;;;;;5004459;28;20029;-69
2022/04/06 03:34:54;;;;;;;29.73;18.27;;;6.90;99.90;;;;;;5009091;28;20049;-69
2022/04/06 03:37:20;;;;;;;24.52;17.60;;;6.90;99.90;;;;;;5008664;28;20049;-68
2022/04/06 03:39:46;;;;;;;22.10;17.05;;;6.90;99.90;;;;;;5011039;28;20027;-69
2022/04/06 03:42:12;;;;;;;29.95;17.10;;;6.90;99.90;;;;;;5007419;28;20113;-69
2022/04/06 03:44:37;;;;;;;20.00;17.00;;;6.80;99.90;;;;;;5010465;28;20152;-70
2022/04/06 03:47:03;;;;;;;27.00;19.08;;;6.90;99.90;;;;;;5009187;28;20474;-70
2022/04/06 03:49:29;;;;;;;21.27;16.23;;;6.90;99.90;;;;;;5010514;28;20022;-69
2022/04/06 03:51:55;;;;;;;20.80;16.88;;;6.90;99.90;;;;;;5008064;28;20096;-68
2022/04/06 03:54:20;;;;;;;21.27;16.27;;;6.90;99.90;;;;;;5011801;28;20030;-69
2022/04/06 03:56:46;;;;;;;32.35;17.45;;;6.90;99.90;;;;;;5004767;28;20120;-69
2022/04/06 03:59:12;;;;;;;20.92;16.80;;;6.90;99.90;;;;;;5011645;28;20026;-69
2022/04/06 04:01:38;;;;;;;21.40;16.63;;;6.90;99.90;;;;;;5008459;28;20021;-69
2022/04/06 04:04:04;;;;;;;25.42;16.52;;;6.90;99.90;;;;;;5009345;28;20080;-69
2022/04/06 04:06:33;;;;;;;26.40;17.38;;;6.90;99.90;;;;;;5008695;28;20028;-70
2022/04/06 04:08:59;;;;;;;34.50;17.92;;;6.90;99.90;;;;;;5004666;28;20041;-70
2022/04/06 04:11:24;;;;;;;26.58;16.20;;;6.90;99.90;;;;;;5008751;28;20117;-70
2022/04/06 04:13:50;;;;;;;28.83;17.65;;;7.00;99.90;;;;;;5013036;28;20198;-70
2022/04/06 04:16:16;;;;;;;24.55;18.50;;;6.90;99.90;;;;;;5009100;28;20092;-69
2022/04/06 04:18:42;;;;;;;24.42;16.80;;;6.90;99.90;;;;;;5012056;28;20033;-68
2022/04/06 04:23:52;;;;;;;22.13;16.77;;;6.90;99.90;;;;;;5011613;28;20044;-69
2022/04/06 04:26:21;;;;;;;22.63;15.57;;;6.90;99.90;;;;;;5010214;28;20377;-70
2022/04/06 04:28:48;;;;;;;26.90;17.58;;;6.80;99.90;;;;;;5009220;28;20025;-70
2022/04/06 04:31:13;;;;;;;23.55;18.65;;;6.90;99.90;;;;;;5008235;28;20033;-70
2022/04/06 04:33:39;;;;;;;23.73;16.85;;;6.90;99.90;;;;;;5010485;28;20057;-70
2022/04/06 04:36:05;;;;;;;21.92;17.30;;;6.90;99.90;;;;;;5004781;28;20041;-70
2022/04/06 04:38:30;;;;;;;21.23;16.98;;;6.80;99.90;;;;;;5005451;28;20022;-69
2022/04/06 04:40:57;;;;;;;21.45;15.73;;;6.90;99.90;;;;;;5008655;28;20025;-68
2022/04/06 04:43:22;;;;;;;29.45;18.27;;;6.90;99.90;;;;;;5007241;28;20552;-69
2022/04/06 04:45:48;;;;;;;23.63;17.13;;;6.80;99.90;;;;;;5007859;28;20026;-71
2022/04/06 04:48:14;;;;;;;33.75;17.15;;;6.90;99.90;;;;;;5011718;28;20041;-71
2022/04/06 04:50:40;;;;;;;26.77;17.30;;;6.90;99.90;;;;;;5005681;28;20520;-71
2022/04/06 04:53:06;;;;;;;20.63;16.92;;;7.00;99.90;;;;;;5011462;28;20025;-70
2022/04/06 04:55:35;;;;;;;30.55;16.85;;;7.00;99.90;;;;;;5008890;28;20025;-70
2022/04/06 04:58:00;;;;;;;21.02;16.50;;;7.10;99.90;;;;;;5004447;28;20490;-69
2022/04/06 05:00:26;;;;;;;23.10;16.85;;;7.00;99.90;;;;;;5010970;28;20113;-70
2022/04/06 05:02:52;;;;;;;24.00;16.48;;;7.00;99.90;;;;;;5010323;28;20032;-72
2022/04/06 05:05:18;;;;;;;29.55;16.52;;;7.00;99.90;;;;;;5007799;28;20109;-70
2022/04/06 05:07:43;;;;;;;26.85;16.80;;;7.10;99.90;;;;;;5009408;28;20204;-72
2022/04/06 05:10:10;;;;;;;24.50;16.80;;;7.10;99.90;;;;;;5007513;28;20168;-70
2022/04/06 05:12:36;;;;;;;34.33;16.13;;;7.00;99.90;;;;;;5010776;28;20030;-71
2022/04/06 05:15:04;;;;;;;24.63;15.98;;;7.00;99.90;;;;;;5009773;28;20030;-70
2022/04/06 05:17:30;;;;;;;23.10;16.27;;;7.00;99.90;;;;;;5009965;28;20524;-69
2022/04/06 05:19:56;;;;;;;26.83;17.83;;;7.10;99.90;;;;;;5007701;28;20034;-70
2022/04/06 05:22:22;;;;;;;33.20;17.90;;;7.10;99.90;;;;;;5007626;28;20075;-70
2022/04/06 05:24:48;;;;;;;27.15;17.75;;;7.20;99.90;;;;;;5006557;28;20105;-69
2022/04/06 05:27:14;;;;;;;32.72;17.88;;;7.20;99.90;;;;;;5007470;28;20041;-63
2022/04/06 05:29:41;;;;;;;27.55;16.90;;;7.20;99.90;;;;;;5011111;28;20445;-65
2022/04/06 05:32:08;;;;;;;31.67;18.38;;;7.30;99.90;;;;;;5007362;28;20075;-64
2022/04/06 05:34:35;;;;;;;25.05;18.30;;;7.30;99.90;;;;;;5003713;28;20060;-64
2022/04/06 05:37:02;;;;;;;21.05;16.20;;;7.30;99.90;;;;;;5002208;28;20405;-64
2022/04/06 05:39:28;;;;;;;29.77;17.10;;;7.50;99.90;;;;;;5002707;28;20026;-65
2022/04/06 05:41:54;;;;;;;21.67;17.48;;;7.50;99.90;;;;;;5004108;28;20386;-64
2022/04/06 05:44:19;;;;;;;25.85;18.20;;;7.50;99.90;;;;;;5005331;28;20025;-64
2022/04/06 05:46:45;;;;;;;27.67;17.27;;;7.60;99.90;;;;;;5009671;28;20466;-64
2022/04/06 05:49:11;;;;;;;23.20;18.90;;;7.70;99.90;;;;;;5011252;28;20477;-64
2022/04/06 05:51:36;;;;;;;23.95;17.65;;;7.80;99.90;;;;;;5010028;28;20021;-65
2022/04/06 05:54:02;;;;;;;32.13;18.88;;;7.80;99.90;;;;;;5008446;28;20414;-65
2022/04/06 05:56:31;;;;;;;30.23;19.40;;;7.90;99.90;;;;;;5009876;28;20057;-64
2022/04/06 05:58:57;;;;;;;27.70;18.70;;;8.00;99.90;;;;;;5009695;28;20053;-65
2022/04/06 06:01:23;;;;;;;24.30;18.58;;;8.10;99.90;;;;;;5011475;28;20466;-66
2022/04/06 06:03:49;;;;;;;30.33;19.10;;;8.20;99.90;;;;;;5009846;28;20076;-62
2022/04/06 06:06:15;;;;;;;25.15;18.17;;;8.20;99.90;;;;;;5010773;28;20486;-64
2022/04/06 06:08:41;;;;;;;24.83;17.88;;;8.30;99.90;;;;;;5008422;28;20033;-65
2022/04/06 06:11:07;;;;;;;22.15;16.10;;;8.40;99.90;;;;;;5007303;28;20041;-64
2022/04/06 06:13:33;;;;;;;25.50;17.92;;;8.60;99.90;;;;;;5011135;28;20034;-64
2022/04/06 06:16:00;;;;;;;24.95;16.65;;;8.80;99.90;;;;;;5012067;28;20494;-64
2022/04/06 06:18:27;;;;;;;26.95;15.88;;;9.00;99.90;;;;;;5008901;28;20025;-64
2022/04/06 06:20:53;;;;;;;27.83;18.00;;;9.10;99.90;;;;;;5010855;28;20022;-65
2022/04/06 06:23:19;;;;;;;27.50;15.30;;;9.30;99.90;;;;;;5010984;28;20018;-66
2022/04/06 06:25:44;;;;;;;20.52;15.15;;;9.40;99.90;;;;;;5010195;28;20032;-65
2022/04/06 06:28:10;;;;;;;25.20;16.75;;;9.40;99.90;;;;;;5009666;28;20486;-65
2022/04/06 06:30:36;;;;;;;22.45;16.27;;;9.50;99.90;;;;;;5011404;28;20374;-64
2022/04/06 06:33:02;;;;;;;23.65;15.45;;;9.60;99.90;;;;;;5009738;28;20041;-65
2022/04/06 06:35:28;;;;;;;25.55;14.48;;;9.70;99.90;;;;;;5008629;28;20037;-63
2022/04/06 06:37:55;;;;;;;27.95;13.95;;;9.90;99.90;;;;;;5009807;28;20025;-64
2022/04/06 06:40:23;;;;;;;25.52;14.60;;;10.00;99.90;;;;;;5009304;28;20125;-65
2022/04/06 06:42:49;;;;;;;28.20;15.65;;;10.10;99.90;;;;;;5009348;28;20477;-64
2022/04/06 06:45:15;;;;;;;27.40;11.85;;;10.30;99.90;;;;;;5010062;28;20026;-64
2022/04/06 06:47:41;;;;;;;22.75;14.88;;;10.60;99.90;;;;;;5009305;28;20061;-65
2022/04/06 06:50:12;;;;;;;26.42;14.73;;;10.70;99.90;;;;;;5008910;28;20109;-65
2022/04/06 06:52:38;;;;;;;24.23;13.15;;;10.80;99.90;;;;;;5010485;28;20030;-65
2022/04/06 06:55:10;;;;;;;17.38;13.32;;;11.10;99.90;;;;;;5009344;28;20394;-64
2022/04/06 06:57:36;;;;;;;14.25;11.07;;;11.10;99.90;;;;;;5010431;28;20022;-65
2022/04/06 07:00:04;;;;;;;19.02;13.57;;;11.30;99.90;;;;;;5009355;28;20026;-64
2022/04/06 07:02:30;;;;;;;20.27;14.30;;;11.40;99.90;;;;;;5008852;28;20030;-65
2022/04/06 07:04:55;;;;;;;17.92;12.85;;;11.50;99.90;;;;;;5013258;28;20092;-65
2022/04/06 07:07:21;;;;;;;16.20;13.68;;;11.60;99.90;;;;;;5010466;28;20479;-65
2022/04/06 07:09:47;;;;;;;20.33;14.95;;;11.60;99.90;;;;;;5009824;28;20037;-63
2022/04/06 07:12:13;;;;;;;27.67;12.63;;;11.60;99.90;;;;;;5007821;28;20080;-65
2022/04/06 07:14:38;;;;;;;19.67;13.38;;;11.70;99.90;;;;;;5010360;28;20030;-64
2022/04/06 07:17:04;;;;;;;24.60;13.60;;;11.90;99.90;;;;;;5009033;28;20030;-65
2022/04/06 07:19:30;;;;;;;22.58;12.85;;;12.10;99.90;;;;;;5010475;28;20025;-65
2022/04/06 07:21:56;;;;;;;26.73;15.95;;;12.20;99.90;;;;;;5006599;28;20490;-64
2022/04/06 07:24:21;;;;;;;24.10;12.93;;;12.30;99.90;;;;;;5009587;28;20548;-65
2022/04/06 07:26:47;;;;;;;25.95;12.77;;;12.40;99.90;;;;;;5010032;28;20461;-64
2022/04/06 07:29:15;;;;;;;20.38;12.18;;;12.50;99.90;;;;;;5008461;28;20034;-65
2022/04/06 07:31:43;;;;;;;30.38;15.25;;;12.50;99.90;;;;;;5009071;28;20033;-64
2022/04/06 07:34:10;;;;;;;29.55;11.88;;;12.50;99.90;;;;;;5008138;28;20034;-65
2022/04/06 07:36:36;;;;;;;23.88;12.27;;;12.80;99.90;;;;;;5010080;28;20030;-65
2022/04/06 07:39:04;;;;;;;18.63;11.02;;;12.80;99.90;;;;;;5010195;28;20053;-65
2022/04/06 07:41:30;;;;;;;15.80;10.27;;;12.80;99.90;;;;;;5011809;28;20029;-65
2022/04/06 07:43:56;;;;;;;23.05;10.65;;;12.80;99.90;;;;;;5012023;28;20559;-63
2022/04/06 07:46:22;;;;;;;21.48;13.25;;;12.80;99.90;;;;;;5012633;28;20034;-65
2022/04/06 07:48:48;;;;;;;19.33;15.75;;;12.80;99.90;;;;;;5012515;28;20040;-65
2022/04/06 07:51:14;;;;;;;20.20;15.20;;;12.90;99.90;;;;;;5012804;28;20025;-64
2022/04/06 07:53:40;;;;;;;25.52;16.50;;;13.00;99.90;;;;;;4995890;28;20076;-64
2022/04/06 07:56:06;;;;;;;23.40;16.55;;;13.10;99.90;;;;;;5012348;28;20038;-64
2022/04/06 07:58:34;;;;;;;19.50;16.00;;;13.20;99.90;;;;;;5011038;28;20075;-64
2022/04/06 08:01:02;;;;;;;23.58;16.85;;;13.40;99.90;;;;;;5009020;28;20022;-63
2022/04/06 08:03:31;;;;;;;31.25;16.70;;;13.40;99.90;;;;;;5013324;28;20028;-64
2022/04/06 08:05:57;;;;;;;37.88;16.00;;;13.40;99.90;;;;;;5013491;28;20492;-63
2022/04/06 08:08:23;;;;;;;23.50;13.55;;;13.50;99.90;;;;;;5013443;28;20149;-65
2022/04/06 08:10:48;;;;;;;19.48;11.98;;;13.40;99.90;;;;;;5012450;28;20030;-65
2022/04/06 08:13:14;;;;;;;28.13;14.82;;;13.40;99.90;;;;;;5008854;28;20033;-63
2022/04/06 08:15:40;;;;;;;26.08;14.68;;;13.30;99.90;;;;;;5006683;28;21411;-64
2022/04/06 08:18:06;;;;;;;23.95;16.33;;;13.10;99.90;;;;;;5005756;28;20402;-64
2022/04/06 08:20:33;;;;;;;28.35;16.75;;;13.10;99.90;;;;;;5010701;28;20061;-64
2022/04/06 08:22:59;;;;;;;21.88;14.95;;;13.00;99.90;;;;;;5009119;28;20120;-65
2022/04/06 08:25:26;;;;;;;20.73;12.75;;;13.10;99.90;;;;;;5004020;28;20053;-64
2022/04/06 08:27:52;;;;;;;20.80;12.63;;;13.10;99.90;;;;;;5005007;28;20105;-64
2022/04/06 08:30:20;;;;;;;26.85;14.60;;;13.20;99.90;;;;;;5003268;28;20025;-64
2022/04/06 08:32:46;;;;;;;15.85;13.43;;;13.30;99.90;;;;;;5006536;28;20065;-64
2022/04/06 08:35:12;;;;;;;31.48;14.38;;;13.50;99.90;;;;;;5010943;28;20034;-64
2022/04/06 08:37:39;;;;;;;21.58;15.40;;;13.60;99.90;;;;;;5009575;28;20501;-64
2022/04/06 08:40:12;;;;;;;29.52;15.18;;;13.70;99.90;;;;;;5010284;28;20116;-64
2022/04/06 08:42:39;;;;;;;25.77;17.00;;;13.70;99.90;;;;;;5010869;28;20102;-64
2022/04/06 08:45:06;;;;;;;20.77;15.10;;;13.80;99.90;;;;;;5006408;28;20030;-64
2022/04/06 08:47:32;;;;;;;24.23;16.23;;;13.80;99.90;;;;;;5006290;28;20028;-64
2022/04/06 08:50:03;;;;;;;21.05;16.40;;;13.80;99.90;;;;;;5006864;28;20030;-64
2022/04/06 08:52:32;;;;;;;19.48;14.65;;;13.90;99.90;;;;;;5010580;28;20109;-64
2022/04/06 08:54:58;;;;;;;24.00;16.45;;;14.00;99.90;;;;;;5004289;28;20022;-63
2022/04/06 08:57:25;;;;;;;25.15;16.90;;;14.20;99.90;;;;;;5011411;28;20088;-65
2022/04/06 08:59:50;;;;;;;23.95;17.40;;;14.10;99.90;;;;;;5011076;28;20022;-64
2022/04/06 09:02:21;;;;;;;25.02;18.55;;;14.20;99.90;;;;;;5010385;28;20025;-65
2022/04/06 09:04:54;;;;;;;26.70;20.13;;;14.10;99.90;;;;;;5002827;28;20394;-63
2022/04/06 09:07:22;;;;;;;25.40;21.15;;;14.20;99.90;;;;;;5011229;28;20025;-65
2022/04/06 09:09:51;;;;;;;27.77;20.60;;;14.30;99.90;;;;;;5008895;28;20604;-64
2022/04/06 09:12:19;;;;;;;24.85;17.75;;;14.30;99.90;;;;;;5010811;28;20155;-67
2022/04/06 09:14:46;;;;;;;26.58;20.95;;;14.20;99.90;;;;;;5008584;28;20022;-64
2022/04/06 09:17:16;;;;;;;26.98;20.02;;;14.20;99.90;;;;;;5009960;28;20036;-64
2022/04/06 09:19:48;;;;;;;33.38;21.08;;;14.30;99.90;;;;;;5009457;28;20117;-64
2022/04/06 09:22:13;;;;;;;34.13;26.55;;;14.20;99.90;;;;;;5008562;28;20029;-63
2022/04/06 09:24:39;;;;;;;29.65;19.55;;;14.20;99.90;;;;;;5007183;28;20415;-64
2022/04/06 09:27:05;;;;;;;27.02;21.67;;;14.10;99.90;;;;;;5009066;28;20402;-65
2022/04/06 09:29:34;;;;;;;31.27;24.17;;;14.10;99.90;;;;;;5010028;28;20028;-65
2022/04/06 09:32:10;;;;;;;35.47;31.65;;;14.10;99.90;;;;;;5007348;28;20022;-64
2022/04/06 09:34:41;;;;;;;28.58;24.23;;;14.10;99.90;;;;;;5005997;28;20037;-64
2022/04/06 09:37:28;;;;;;;30.35;26.02;;;14.00;99.90;;;;;;5008292;28;20165;-65
2022/04/06 09:39:58;;;;;;;31.80;26.92;;;14.00;99.90;;;;;;5005306;28;20040;-64
2022/04/06 09:42:27;;;;;;;29.17;23.58;;;14.00;99.90;;;;;;5003346;28;20026;-65
2022/04/06 09:47:58;;;;;;;31.23;27.85;;;14.10;99.90;;;;;;5003554;28;20056;-64
2022/04/06 09:50:27;;;;;;;35.00;26.90;;;14.10;99.90;;;;;;5001668;28;20038;-65
2022/04/06 09:52:56;;;;;;;29.77;24.38;;;14.10;99.90;;;;;;5005296;28;20033;-65
2022/04/06 09:55:23;;;;;;;32.67;26.95;;;14.00;99.90;;;;;;5010667;28;20371;-65
2022/04/06 09:57:55;;;;;;;34.45;25.38;;;14.10;99.90;;;;;;5010478;28;20108;-65
2022/04/06 10:00:22;;;;;;;;;;;14.20;99.90;;;;;;5011265;28;20408;-64
2022/04/06 10:03:03;;;;;;;38.78;34.15;;;14.30;99.90;;;;;;5007958;28;20004;-65
2022/04/06 10:05:31;;;;;;;42.67;35.67;;;14.20;99.90;;;;;;5006318;28;20071;-65
2022/04/06 10:08:02;;;;;;;41.15;33.53;;;14.20;99.90;;;;;;5008043;28;20025;-64
2022/04/06 10:10:28;;;;;;;37.80;29.00;;;14.20;99.90;;;;;;5010278;28;20022;-65
2022/04/06 10:12:56;;;;;;;39.78;31.80;;;14.10;99.90;;;;;;5006818;28;20026;-65
2022/04/06 10:15:24;;;;;;;35.75;31.10;;;14.10;99.90;;;;;;5010980;28;20176;-65
2022/04/06 10:17:49;;;;;;;36.78;32.40;;;14.20;99.90;;;;;;5009324;28;20109;-64
2022/04/06 10:20:26;;;;;;;37.88;33.50;;;14.30;99.90;;;;;;5007828;28;20030;-65
2022/04/06 10:23:33;;;;;;;35.38;31.50;;;14.30;99.90;;;;;;5007595;28;20026;-65
2022/04/06 10:26:07;;;;;;;39.70;31.92;;;14.30;99.90;;;;;;5005301;28;20076;-65
2022/04/06 10:28:36;;;;;;;38.72;30.25;;;14.30;99.90;;;;;;5005616;28;20057;-65
2022/04/06 10:31:17;;;;;;;38.53;33.95;;;14.40;99.90;;;;;;5010210;28;20018;-65
2022/04/06 10:33:45;;;;;;;34.15;30.75;;;14.40;99.90;;;;;;5006765;28;20149;-64
2022/04/06 10:36:28;;;;;;;34.13;28.98;;;14.40;99.90;;;;;;5009254;28;20030;-65
2022/04/06 10:39:12;;;;;;;34.60;31.02;;;14.50;99.90;;;;;;5007248;28;20339;-64
2022/04/06 10:41:59;;;;;;;33.83;29.35;;;14.60;99.90;;;;;;5006711;28;20030;-64
2022/04/06 10:44:37;;;;;;;36.30;28.10;;;14.60;99.90;;;;;;5010162;28;20430;-64
2022/04/06 10:47:11;;;;;;;34.00;29.73;;;14.50;99.90;;;;;;5008989;28;20081;-64
2022/04/06 10:49:38;;;;;;;42.92;35.65;;;14.40;99.90;;;;;;5006396;28;20122;-64
2022/04/06 10:52:23;;;;;;;42.35;34.50;;;14.20;99.90;;;;;;5007648;28;20026;-65
2022/04/06 10:54:50;;;;;;;41.80;36.78;;;14.20;99.90;;;;;;5008378;28;20026;-64
2022/04/06 10:57:15;;;;;;;41.50;34.63;;;14.30;99.90;;;;;;5009960;28;20368;-65
2022/04/06 10:59:41;;;;;;;35.33;31.52;;;14.40;99.90;;;;;;5009973;28;20018;-65
2022/04/06 11:02:27;;;;;;;38.00;33.95;;;14.60;99.90;;;;;;5009793;28;20076;-64
2022/04/06 11:04:53;;;;;;;43.38;38.00;;;14.80;99.90;;;;;;5010397;28;20026;-64
2022/04/06 11:10:22;;;;;;;36.75;32.83;;;14.90;99.90;;;;;;5009746;28;20033;-65
2022/04/06 11:13:04;;;;;;;39.42;32.65;;;14.90;99.90;;;;;;5010676;28;20026;-64
2022/04/06 11:15:41;;;;;;;36.20;32.70;;;14.80;99.90;;;;;;5012655;28;20363;-64
2022/04/06 11:18:52;;;;;;;35.50;31.75;;;14.80;99.90;;;;;;5014802;28;20034;-67
2022/04/06 11:21:18;;;;;;;33.55;30.10;;;14.80;99.90;;;;;;5007918;28;20482;-64
2022/04/06 11:23:44;;;;;;;37.70;33.63;;;14.90;99.90;;;;;;5009614;28;20030;-65
2022/04/06 11:26:10;;;;;;;32.65;29.20;;;14.80;99.90;;;;;;5013886;28;20105;-64
2022/04/06 11:28:35;;;;;;;37.15;33.47;;;14.80;99.90;;;;;;5014038;28;20026;-65
2022/04/06 11:31:02;;;;;;;38.67;34.25;;;14.70;99.90;;;;;;5013750;28;20025;-65
2022/04/06 11:33:42;;;;;;;38.55;34.45;;;14.80;99.90;;;;;;5007735;28;20041;-64
2022/04/06 11:36:14;;;;;;;38.95;35.00;;;14.70;99.90;;;;;;5011257;28;20022;-66
2022/04/06 11:38:40;;;;;;;40.15;36.15;;;14.70;99.90;;;;;;5014001;28;20026;-64
2022/04/06 11:41:06;;;;;;;42.88;37.38;;;14.70;99.90;;;;;;5013597;28;20509;-64
2022/04/06 11:43:35;;;;;;;39.22;35.38;;;14.80;99.90;;;;;;5011631;28;20128;-66
2022/04/06 11:46:01;;;;;;;42.40;37.95;;;14.60;99.90;;;;;;5011631;28;20018;-66
2022/04/06 11:48:42;;;;;;;40.30;36.10;;;14.60;99.90;;;;;;5012882;28;20421;-65
2022/04/06 11:51:08;;;;;;;41.22;36.88;;;14.60;99.90;;;;;;5010751;28;20505;-64
2022/04/06 11:53:35;;;;;;;43.28;36.78;;;14.60;99.90;;;;;;5010308;28;20493;-64
2022/04/06 11:56:01;;;;;;;41.83;37.53;;;14.80;99.90;;;;;;5012635;28;20034;-64
2022/04/06 11:58:38;;;;;;;38.60;34.35;;;15.00;99.90;;;;;;5012789;28;20048;-64
2022/04/06 12:01:05;;;;;;;40.40;36.28;;;15.00;99.90;;;;;;5012511;28;20022;-65
2022/04/06 12:03:32;;;;;;;41.22;36.83;;;15.00;99.90;;;;;;5010850;28;20022;-64
2022/04/06 12:05:59;;;;;;;40.55;35.13;;;15.00;99.90;;;;;;5006886;28;20614;-66
2022/04/06 12:08:24;;;;;;;47.55;38.58;;;15.00;99.90;;;;;;5004192;28;20044;-64
2022/04/06 12:10:52;;;;;;;37.92;33.88;;;15.10;99.90;;;;;;5008089;28;20026;-64
2022/04/06 12:13:20;;;;;;;40.35;36.08;;;15.10;99.90;;;;;;5012454;28;20092;-65
2022/04/06 12:15:48;;;;;;;39.97;34.35;;;15.20;99.90;;;;;;5007683;28;20465;-65
2022/04/06 12:18:21;;;;;;;43.67;36.95;;;15.30;99.90;;;;;;5011333;28;20029;-64
2022/04/06 12:20:48;;;;;;;41.35;37.10;;;15.60;99.90;;;;;;5009685;28;20018;-65
2022/04/06 12:23:15;;;;;;;37.88;33.97;;;15.60;99.90;;;;;;5004888;28;20018;-66
2022/04/06 12:25:42;;;;;;;44.83;38.47;;;15.60;99.90;;;;;;5013618;28;20498;-64
2022/04/06 12:28:11;;;;;;;36.38;30.98;;;15.70;99.90;;;;;;5006592;28;20092;-64
2022/04/06 12:30:54;;;;;;;39.17;30.88;;;15.60;99.90;;;;;;5010517;28;20377;-65
2022/04/06 12:33:50;;;;;;;36.28;32.53;;;15.70;99.90;;;;;;5012470;28;20030;-65
2022/04/06 12:36:27;;;;;;;45.58;39.97;;;15.60;99.90;;;;;;5011516;28;20065;-65
2022/04/06 12:39:11;;;;;;;43.65;35.72;;;15.40;99.90;;;;;;5011364;28;20022;-65
2022/04/06 12:41:57;;;;;;;42.40;37.92;;;15.50;99.90;;;;;;5012849;28;20029;-65
2022/04/06 12:44:23;;;;;;;43.95;39.20;;;15.50;99.90;;;;;;4993575;28;20046;-66
2022/04/06 12:46:50;;;;;;;41.88;37.58;;;15.50;99.90;;;;;;5014172;28;20037;-66
2022/04/06 12:49:21;;;;;;;46.50;41.75;;;15.70;99.90;;;;;;5012454;28;20243;-65
2022/04/06 12:51:48;;;;;;;46.77;41.87;;;15.80;99.90;;;;;;5024094;28;20029;-65